sensor_id;sensor_type;location;lat;lon;timestamp;temperature;humidity
2407;DHT22;37709;53.480;9.688;2023-02-23T00:01:53;5.50;99.90
2407;DHT22;37709;53.480;9.688;2023-02-23T00:04:22;5.40;99.90
2407;DHT22;37709;53.480;9.688;2023-02-23T00:06:51;5.40;99.90
2407;DHT22;37709;53.480;9.688;2023-02-23T00:09:20;5.30;99.90
2407;DHT22;37709;53.480;9.688;2023-02-23T00:11:55;5.40;99.90
2407;DHT22;37709;53.480;9.688;2023-02-23T00:14:26;5.30;99.90
2407;DHT22;37709;53.480;9.688;2023-02-23T00:16:57;5.20;99.90
2407;DHT22;37709;53.480;9.688;2023-02-23T00:19:26;5.30;99.90
2407;DHT22;37709;53.480;9.688;2023-02-23T00:21:53;5.20;99.90
2407;DHT22;37709;53.480;9.688;2023-02-23T00:24:24;5.20;99.90
2407;DHT22;37709;53.480;9.688;2023-02-23T00:26:53;5.10;99.90
2407;DHT22;37709;53.480;9.688;2023-02-23T00:29:22;5.00;99.90
2407;DHT22;37709;53.480;9.688;2023-02-23T00:31:53;5.10;99.90
2407;DHT22;37709;53.480;9.688;2023-02-23T00:34:22;5.10;99.90
2407;DHT22;37709;53.480;9.688;2023-02-23T00:36:51;5.10;99.90
2407;DHT22;37709;53.480;9.688;2023-02-23T00:39:22;4.90;99.90
2407;DHT22;37709;53.480;9.688;2023-02-23T00:41:54;4.80;99.90
2407;DHT22;37709;53.480;9.688;2023-02-23T00:44:22;4.90;99.90
2407;DHT22;37709;53.480;9.688;2023-02-23T00:46:50;5.00;99.90
2407;DHT22;37709;53.480;9.688;2023-02-23T00:49:20;5.10;99.90
2407;DHT22;37709;53.480;9.688;2023-02-23T00:51:48;5.10;99.90
2407;DHT22;37709;53.480;9.688;2023-02-23T00:54:17;5.20;99.90
2407;DHT22;37709;53.480;9.688;2023-02-23T00:56:45;5.20;99.90
2407;DHT22;37709;53.480;9.688;2023-02-23T00:59:13;5.20;99.90
2407;DHT22;37709;53.480;9.688;2023-02-23T01:01:41;5.20;99.90
2407;DHT22;37709;53.480;9.688;2023-02-23T01:04:10;5.40;99.90
2407;DHT22;37709;53.480;9.688;2023-02-23T01:06:38;5.40;99.90
2407;DHT22;37709;53.480;9.688;2023-02-23T01:09:09;5.50;99.90
2407;DHT22;37709;53.480;9.688;2023-02-23T01:11:38;5.50;99.90
2407;DHT22;37709;53.480;9.688;2023-02-23T01:14:08;5.50;99.90
2407;DHT22;37709;53.480;9.688;2023-02-23T01:16:36;5.50;99.90
2407;DHT22;37709;53.480;9.688;2023-02-23T01:19:05;5.50;99.90
2407;DHT22;37709;53.480;9.688;2023-02-23T01:21:35;5.50;99.90
2407;DHT22;37709;53.480;9.688;2023-02-23T01:24:03;5.50;99.90
2407;DHT22;37709;53.480;9.688;2023-02-23T01:26:33;5.50;99.90
2407;DHT22;37709;53.480;9.688;2023-02-23T01:29:09;5.40;99.90
2407;DHT22;37709;53.480;9.688;2023-02-23T01:31:40;5.20;99.90
2407;DHT22;37709;53.480;9.688;2023-02-23T01:34:10;5.00;99.90
2407;DHT22;37709;53.480;9.688;2023-02-23T01:36:39;5.00;99.90
2407;DHT22;37709;53.480;9.688;2023-02-23T01:39:10;5.00;99.90
2407;DHT22;37709;53.480;9.688;2023-02-23T01:41:40;5.10;99.90
2407;DHT22;37709;53.480;9.688;2023-02-23T01:46:41;5.10;99.90
2407;DHT22;37709;53.480;9.688;2023-02-23T01:49:13;5.10;99.90
2407;DHT22;37709;53.480;9.688;2023-02-23T01:51:45;5.20;99.90
2407;DHT22;37709;53.480;9.688;2023-02-23T01:54:18;5.30;99.90
2407;DHT22;37709;53.480;9.688;2023-02-23T01:56:51;5.40;99.90
2407;DHT22;37709;53.480;9.688;2023-02-23T01:59:33;5.50;99.90
2407;DHT22;37709;53.480;9.688;2023-02-23T02:02:02;5.50;99.90
2407;DHT22;37709;53.480;9.688;2023-02-23T02:04:35;5.50;99.90
2407;DHT22;37709;53.480;9.688;2023-02-23T02:07:22;5.60;99.90
2407;DHT22;37709;53.480;9.688;2023-02-23T02:09:52;5.60;99.90
2407;DHT22;37709;53.480;9.688;2023-02-23T02:12:45;5.70;99.90
2407;DHT22;37709;53.480;9.688;2023-02-23T02:15:19;5.70;99.90
2407;DHT22;37709;53.480;9.688;2023-02-23T02:18:09;5.70;99.90
2407;DHT22;37709;53.480;9.688;2023-02-23T02:21:01;5.60;99.90
2407;DHT22;37709;53.480;9.688;2023-02-23T02:26:43;5.60;99.90
2407;DHT22;37709;53.480;9.688;2023-02-23T02:32:35;5.40;99.90
2407;DHT22;37709;53.480;9.688;2023-02-23T02:35:11;5.30;99.90
2407;DHT22;37709;53.480;9.688;2023-02-23T02:38:22;5.10;99.90
2407;DHT22;37709;53.480;9.688;2023-02-23T02:43:36;4.90;99.90
2407;DHT22;37709;53.480;9.688;2023-02-23T02:46:27;4.80;99.90
2407;DHT22;37709;53.480;9.688;2023-02-23T02:49:18;4.70;99.90
2407;DHT22;37709;53.480;9.688;2023-02-23T02:51:55;4.70;99.90
2407;DHT22;37709;53.480;9.688;2023-02-23T02:54:42;4.70;99.90
2407;DHT22;37709;53.480;9.688;2023-02-23T02:57:11;4.60;99.90
2407;DHT22;37709;53.480;9.688;2023-02-23T02:59:42;4.70;99.90
2407;DHT22;37709;53.480;9.688;2023-02-23T03:02:32;4.80;99.90
2407;DHT22;37709;53.480;9.688;2023-02-23T03:05:23;4.80;99.90
2407;DHT22;37709;53.480;9.688;2023-02-23T03:08:36;4.90;99.90
2407;DHT22;37709;53.480;9.688;2023-02-23T03:11:29;4.90;99.90
2407;DHT22;37709;53.480;9.688;2023-02-23T03:14:39;4.90;99.90
2407;DHT22;37709;53.480;9.688;2023-02-23T03:17:47;5.10;99.90
2407;DHT22;37709;53.480;9.688;2023-02-23T03:20:42;5.20;99.90
2407;DHT22;37709;53.480;9.688;2023-02-23T03:26:42;5.40;99.90
2407;DHT22;37709;53.480;9.688;2023-02-23T03:32:46;5.50;99.90
2407;DHT22;37709;53.480;9.688;2023-02-23T03:36:04;5.50;99.90
2407;DHT22;37709;53.480;9.688;2023-02-23T03:39:03;5.50;99.90
2407;DHT22;37709;53.480;9.688;2023-02-23T03:41:54;5.50;99.90
2407;DHT22;37709;53.480;9.688;2023-02-23T03:44:44;5.50;99.90
2407;DHT22;37709;53.480;9.688;2023-02-23T03:47:36;5.60;99.90
2407;DHT22;37709;53.480;9.688;2023-02-23T03:50:31;5.70;99.90
2407;DHT22;37709;53.480;9.688;2023-02-23T03:53:28;5.70;99.90
2407;DHT22;37709;53.480;9.688;2023-02-23T03:56:18;5.70;99.90
2407;DHT22;37709;53.480;9.688;2023-02-23T03:59:07;5.70;99.90
2407;DHT22;37709;53.480;9.688;2023-02-23T04:01:55;5.70;99.90
2407;DHT22;37709;53.480;9.688;2023-02-23T04:04:44;5.70;99.90
2407;DHT22;37709;53.480;9.688;2023-02-23T04:07:32;5.60;99.90
2407;DHT22;37709;53.480;9.688;2023-02-23T04:10:19;5.50;99.90
2407;DHT22;37709;53.480;9.688;2023-02-23T04:13:11;5.60;99.90
2407;DHT22;37709;53.480;9.688;2023-02-23T04:15:56;5.60;99.90
2407;DHT22;37709;53.480;9.688;2023-02-23T04:18:26;5.60;99.90
2407;DHT22;37709;53.480;9.688;2023-02-23T04:20:55;5.60;99.90
2407;DHT22;37709;53.480;9.688;2023-02-23T04:23:23;5.60;99.90
2407;DHT22;37709;53.480;9.688;2023-02-23T04:25:51;5.60;99.90
2407;DHT22;37709;53.480;9.688;2023-02-23T04:28:20;5.60;99.90
2407;DHT22;37709;53.480;9.688;2023-02-23T04:30:47;5.60;99.90
2407;DHT22;37709;53.480;9.688;2023-02-23T04:33:15;5.70;99.90
2407;DHT22;37709;53.480;9.688;2023-02-23T04:35:42;5.80;99.90
2407;DHT22;37709;53.480;9.688;2023-02-23T04:38:10;5.80;99.90
2407;DHT22;37709;53.480;9.688;2023-02-23T04:40:37;5.80;99.90
2407;DHT22;37709;53.480;9.688;2023-02-23T04:43:04;5.90;99.90
2407;DHT22;37709;53.480;9.688;2023-02-23T04:45:32;5.90;99.90
2407;DHT22;37709;53.480;9.688;2023-02-23T04:47:59;6.00;99.90
2407;DHT22;37709;53.480;9.688;2023-02-23T04:50:26;6.00;99.90
2407;DHT22;37709;53.480;9.688;2023-02-23T04:52:53;6.00;99.90
2407;DHT22;37709;53.480;9.688;2023-02-23T04:55:23;6.00;99.90
2407;DHT22;37709;53.480;9.688;2023-02-23T04:57:55;6.00;99.90
2407;DHT22;37709;53.480;9.688;2023-02-23T05:00:23;6.00;99.90
2407;DHT22;37709;53.480;9.688;2023-02-23T05:02:51;6.00;99.90
2407;DHT22;37709;53.480;9.688;2023-02-23T05:05:18;6.00;99.90
2407;DHT22;37709;53.480;9.688;2023-02-23T05:07:45;6.00;99.90
2407;DHT22;37709;53.480;9.688;2023-02-23T05:10:12;6.00;99.90
2407;DHT22;37709;53.480;9.688;2023-02-23T05:12:40;6.00;99.90
2407;DHT22;37709;53.480;9.688;2023-02-23T05:15:07;6.00;99.90
2407;DHT22;37709;53.480;9.688;2023-02-23T05:17:38;5.90;99.90
2407;DHT22;37709;53.480;9.688;2023-02-23T05:20:09;5.90;99.90
2407;DHT22;37709;53.480;9.688;2023-02-23T05:22:37;5.90;99.90
2407;DHT22;37709;53.480;9.688;2023-02-23T05:25:05;5.90;99.90
2407;DHT22;37709;53.480;9.688;2023-02-23T05:27:32;6.00;99.90
2407;DHT22;37709;53.480;9.688;2023-02-23T05:30:00;6.00;99.90
2407;DHT22;37709;53.480;9.688;2023-02-23T05:32:27;6.10;99.90
2407;DHT22;37709;53.480;9.688;2023-02-23T05:34:55;6.10;99.90
2407;DHT22;37709;53.480;9.688;2023-02-23T05:37:22;6.10;99.90
2407;DHT22;37709;53.480;9.688;2023-02-23T05:39:50;6.10;99.90
2407;DHT22;37709;53.480;9.688;2023-02-23T05:42:17;6.10;99.90
2407;DHT22;37709;53.480;9.688;2023-02-23T05:44:44;6.20;99.90
2407;DHT22;37709;53.480;9.688;2023-02-23T05:47:11;6.20;99.90
2407;DHT22;37709;53.480;9.688;2023-02-23T05:49:39;6.20;99.90
2407;DHT22;37709;53.480;9.688;2023-02-23T05:52:31;6.20;99.90
2407;DHT22;37709;53.480;9.688;2023-02-23T05:54:58;6.20;99.90
2407;DHT22;37709;53.480;9.688;2023-02-23T05:57:25;6.30;99.90
2407;DHT22;37709;53.480;9.688;2023-02-23T05:59:53;6.30;99.90
2407;DHT22;37709;53.480;9.688;2023-02-23T06:02:21;6.40;99.90
2407;DHT22;37709;53.480;9.688;2023-02-23T06:04:48;6.40;99.90
2407;DHT22;37709;53.480;9.688;2023-02-23T06:07:15;6.50;99.90
2407;DHT22;37709;53.480;9.688;2023-02-23T06:09:43;6.50;99.90
2407;DHT22;37709;53.480;9.688;2023-02-23T06:12:10;6.50;99.90
2407;DHT22;37709;53.480;9.688;2023-02-23T06:14:38;6.60;99.90
2407;DHT22;37709;53.480;9.688;2023-02-23T06:17:06;6.60;99.90
2407;DHT22;37709;53.480;9.688;2023-02-23T06:19:33;6.60;99.90
2407;DHT22;37709;53.480;9.688;2023-02-23T06:22:00;6.60;99.90
2407;DHT22;37709;53.480;9.688;2023-02-23T06:24:28;6.60;99.90
2407;DHT22;37709;53.480;9.688;2023-02-23T06:26:55;6.70;99.90
2407;DHT22;37709;53.480;9.688;2023-02-23T06:29:22;6.70;99.90
2407;DHT22;37709;53.480;9.688;2023-02-23T06:31:50;6.70;99.90
2407;DHT22;37709;53.480;9.688;2023-02-23T06:34:17;6.70;99.90
2407;DHT22;37709;53.480;9.688;2023-02-23T06:36:45;6.70;99.90
2407;DHT22;37709;53.480;9.688;2023-02-23T06:39:12;6.70;99.90
2407;DHT22;37709;53.480;9.688;2023-02-23T06:41:40;6.70;99.90
2407;DHT22;37709;53.480;9.688;2023-02-23T06:44:07;6.70;99.90
2407;DHT22;37709;53.480;9.688;2023-02-23T06:46:35;6.70;99.90
2407;DHT22;37709;53.480;9.688;2023-02-23T06:49:02;6.70;99.90
2407;DHT22;37709;53.480;9.688;2023-02-23T06:51:30;6.70;99.90
2407;DHT22;37709;53.480;9.688;2023-02-23T06:53:57;6.80;99.90
2407;DHT22;37709;53.480;9.688;2023-02-23T06:56:24;6.80;99.90
2407;DHT22;37709;53.480;9.688;2023-02-23T06:58:51;6.80;99.90
2407;DHT22;37709;53.480;9.688;2023-02-23T07:01:19;6.80;99.90
2407;DHT22;37709;53.480;9.688;2023-02-23T07:03:47;6.80;99.90
2407;DHT22;37709;53.480;9.688;2023-02-23T07:06:15;6.80;99.90
2407;DHT22;37709;53.480;9.688;2023-02-23T07:08:42;6.80;99.90
2407;DHT22;37709;53.480;9.688;2023-02-23T07:11:13;6.90;99.90
2407;DHT22;37709;53.480;9.688;2023-02-23T07:13:41;6.90;99.90
2407;DHT22;37709;53.480;9.688;2023-02-23T07:16:08;6.90;99.90
2407;DHT22;37709;53.480;9.688;2023-02-23T07:18:35;6.90;99.90
2407;DHT22;37709;53.480;9.688;2023-02-23T07:21:03;7.00;99.90
2407;DHT22;37709;53.480;9.688;2023-02-23T07:23:30;7.00;99.90
2407;DHT22;37709;53.480;9.688;2023-02-23T07:25:58;7.00;99.90
2407;DHT22;37709;53.480;9.688;2023-02-23T07:28:26;7.00;99.90
2407;DHT22;37709;53.480;9.688;2023-02-23T07:30:55;7.00;99.90
2407;DHT22;37709;53.480;9.688;2023-02-23T07:33:24;7.00;99.90
2407;DHT22;37709;53.480;9.688;2023-02-23T07:35:51;7.10;99.90
2407;DHT22;37709;53.480;9.688;2023-02-23T07:38:19;7.10;99.90
2407;DHT22;37709;53.480;9.688;2023-02-23T07:40:51;7.10;99.90
2407;DHT22;37709;53.480;9.688;2023-02-23T07:43:18;7.10;99.90
2407;DHT22;37709;53.480;9.688;2023-02-23T07:45:50;7.10;99.90
2407;DHT22;37709;53.480;9.688;2023-02-23T07:48:18;7.20;99.90
2407;DHT22;37709;53.480;9.688;2023-02-23T07:50:46;7.20;99.90
2407;DHT22;37709;53.480;9.688;2023-02-23T07:53:14;7.20;99.90
2407;DHT22;37709;53.480;9.688;2023-02-23T07:55:42;7.20;99.90
2407;DHT22;37709;53.480;9.688;2023-02-23T07:58:09;7.20;99.90
2407;DHT22;37709;53.480;9.688;2023-02-23T08:00:36;7.20;99.90
2407;DHT22;37709;53.480;9.688;2023-02-23T08:03:06;7.20;99.90
2407;DHT22;37709;53.480;9.688;2023-02-23T08:05:33;7.20;99.90
2407;DHT22;37709;53.480;9.688;2023-02-23T08:08:02;7.30;99.90
2407;DHT22;37709;53.480;9.688;2023-02-23T08:10:29;7.20;99.90
2407;DHT22;37709;53.480;9.688;2023-02-23T08:12:57;7.20;99.90
2407;DHT22;37709;53.480;9.688;2023-02-23T08:15:26;7.20;99.90
2407;DHT22;37709;53.480;9.688;2023-02-23T08:17:53;7.20;99.90
2407;DHT22;37709;53.480;9.688;2023-02-23T08:20:21;7.30;99.90
2407;DHT22;37709;53.480;9.688;2023-02-23T08:22:53;7.30;99.90
2407;DHT22;37709;53.480;9.688;2023-02-23T08:25:20;7.30;99.90
2407;DHT22;37709;53.480;9.688;2023-02-23T08:27:49;7.30;99.90
2407;DHT22;37709;53.480;9.688;2023-02-23T08:30:21;7.40;99.90
2407;DHT22;37709;53.480;9.688;2023-02-23T08:32:49;7.40;99.90
2407;DHT22;37709;53.480;9.688;2023-02-23T08:35:16;7.40;99.90
2407;DHT22;37709;53.480;9.688;2023-02-23T08:37:46;7.40;99.90
2407;DHT22;37709;53.480;9.688;2023-02-23T08:40:13;7.40;99.90
2407;DHT22;37709;53.480;9.688;2023-02-23T08:42:42;7.40;99.90
2407;DHT22;37709;53.480;9.688;2023-02-23T08:45:10;7.50;99.90
2407;DHT22;37709;53.480;9.688;2023-02-23T08:47:37;7.50;99.90
2407;DHT22;37709;53.480;9.688;2023-02-23T08:50:05;7.50;99.90
2407;DHT22;37709;53.480;9.688;2023-02-23T08:52:32;7.50;99.90
2407;DHT22;37709;53.480;9.688;2023-02-23T08:55:00;7.60;99.90
2407;DHT22;37709;53.480;9.688;2023-02-23T08:57:27;7.60;99.90
2407;DHT22;37709;53.480;9.688;2023-02-23T08:59:54;7.60;99.90
2407;DHT22;37709;53.480;9.688;2023-02-23T09:02:21;7.50;99.90
2407;DHT22;37709;53.480;9.688;2023-02-23T09:04:51;7.50;99.90
2407;DHT22;37709;53.480;9.688;2023-02-23T09:07:21;7.60;99.90
2407;DHT22;37709;53.480;9.688;2023-02-23T09:09:56;7.50;99.90
2407;DHT22;37709;53.480;9.688;2023-02-23T09:12:23;7.60;99.90
2407;DHT22;37709;53.480;9.688;2023-02-23T09:14:50;7.70;99.90
2407;DHT22;37709;53.480;9.688;2023-02-23T09:17:20;7.80;99.90
2407;DHT22;37709;53.480;9.688;2023-02-23T09:19:49;7.80;99.90
2407;DHT22;37709;53.480;9.688;2023-02-23T09:22:16;7.80;99.90
2407;DHT22;37709;53.480;9.688;2023-02-23T09:24:47;7.70;99.90
2407;DHT22;37709;53.480;9.688;2023-02-23T09:27:15;7.60;99.90
2407;DHT22;37709;53.480;9.688;2023-02-23T09:29:42;7.50;99.90
2407;DHT22;37709;53.480;9.688;2023-02-23T09:32:10;7.50;99.90
2407;DHT22;37709;53.480;9.688;2023-02-23T09:34:38;7.40;99.90
2407;DHT22;37709;53.480;9.688;2023-02-23T09:37:05;7.40;99.90
2407;DHT22;37709;53.480;9.688;2023-02-23T09:39:33;7.40;99.90
2407;DHT22;37709;53.480;9.688;2023-02-23T09:42:12;7.50;99.90
2407;DHT22;37709;53.480;9.688;2023-02-23T09:45:03;7.70;99.90
2407;DHT22;37709;53.480;9.688;2023-02-23T09:50:27;7.90;99.90
2407;DHT22;37709;53.480;9.688;2023-02-23T09:53:02;8.00;99.90
2407;DHT22;37709;53.480;9.688;2023-02-23T09:55:31;8.10;99.90
2407;DHT22;37709;53.480;9.688;2023-02-23T09:58:06;8.10;99.90
2407;DHT22;37709;53.480;9.688;2023-02-23T10:00:40;8.10;99.90
2407;DHT22;37709;53.480;9.688;2023-02-23T10:03:27;8.10;99.90
2407;DHT22;37709;53.480;9.688;2023-02-23T10:06:03;8.00;99.90
2407;DHT22;37709;53.480;9.688;2023-02-23T10:11:44;7.90;99.90
2407;DHT22;37709;53.480;9.688;2023-02-23T10:22:04;7.60;99.90
2407;DHT22;37709;53.480;9.688;2023-02-23T10:24:41;7.60;99.90
2407;DHT22;37709;53.480;9.688;2023-02-23T10:27:19;7.50;99.90
2407;DHT22;37709;53.480;9.688;2023-02-23T10:29:53;7.40;99.90
2407;DHT22;37709;53.480;9.688;2023-02-23T10:32:31;7.40;99.90
2407;DHT22;37709;53.480;9.688;2023-02-23T10:35:12;7.40;99.90
2407;DHT22;37709;53.480;9.688;2023-02-23T10:37:40;7.50;99.90
2407;DHT22;37709;53.480;9.688;2023-02-23T10:40:14;7.60;99.90
2407;DHT22;37709;53.480;9.688;2023-02-23T10:42:42;7.60;99.90
2407;DHT22;37709;53.480;9.688;2023-02-23T10:45:18;7.70;99.90
2407;DHT22;37709;53.480;9.688;2023-02-23T10:47:53;7.80;99.90
2407;DHT22;37709;53.480;9.688;2023-02-23T10:50:21;7.80;99.90
2407;DHT22;37709;53.480;9.688;2023-02-23T10:53:16;7.70;99.90
2407;DHT22;37709;53.480;9.688;2023-02-23T10:55:45;7.60;99.90
2407;DHT22;37709;53.480;9.688;2023-02-23T10:58:18;7.50;99.90
2407;DHT22;37709;53.480;9.688;2023-02-23T11:01:00;7.50;99.90
2407;DHT22;37709;53.480;9.688;2023-02-23T11:03:33;7.40;99.90
2407;DHT22;37709;53.480;9.688;2023-02-23T11:06:02;7.40;99.90
2407;DHT22;37709;53.480;9.688;2023-02-23T11:08:32;7.30;99.90
2407;DHT22;37709;53.480;9.688;2023-02-23T11:11:04;7.30;99.90
2407;DHT22;37709;53.480;9.688;2023-02-23T11:13:45;7.30;99.90
2407;DHT22;37709;53.480;9.688;2023-02-23T11:16:17;7.30;99.90
2407;DHT22;37709;53.480;9.688;2023-02-23T11:19:00;7.30;99.90
2407;DHT22;37709;53.480;9.688;2023-02-23T11:21:34;7.30;99.90
2407;DHT22;37709;53.480;9.688;2023-02-23T11:26:47;7.40;99.90
2407;DHT22;37709;53.480;9.688;2023-02-23T11:29:30;7.50;99.90
2407;DHT22;37709;53.480;9.688;2023-02-23T11:32:15;7.60;99.90
2407;DHT22;37709;53.480;9.688;2023-02-23T11:34:43;7.70;99.90
2407;DHT22;37709;53.480;9.688;2023-02-23T11:40:07;8.10;99.90
2407;DHT22;37709;53.480;9.688;2023-02-23T11:43:05;8.30;99.90
2407;DHT22;37709;53.480;9.688;2023-02-23T11:45:44;8.50;99.90
2407;DHT22;37709;53.480;9.688;2023-02-23T11:50:52;8.80;99.90
2407;DHT22;37709;53.480;9.688;2023-02-23T11:53:38;8.80;99.90
2407;DHT22;37709;53.480;9.688;2023-02-23T11:56:06;8.90;99.90
2407;DHT22;37709;53.480;9.688;2023-02-23T11:58:47;8.90;99.90
2407;DHT22;37709;53.480;9.688;2023-02-23T12:04:00;8.70;99.90
2407;DHT22;37709;53.480;9.688;2023-02-23T12:06:34;8.70;99.90
2407;DHT22;37709;53.480;9.688;2023-02-23T12:09:25;8.60;99.90
2407;DHT22;37709;53.480;9.688;2023-02-23T12:12:05;8.60;99.90
2407;DHT22;37709;53.480;9.688;2023-02-23T12:14:45;8.60;99.90
2407;DHT22;37709;53.480;9.688;2023-02-23T12:17:26;8.70;99.90
2407;DHT22;37709;53.480;9.688;2023-02-23T12:20:05;8.80;99.90
2407;DHT22;37709;53.480;9.688;2023-02-23T12:22:57;8.90;99.90
2407;DHT22;37709;53.480;9.688;2023-02-23T12:28:26;9.10;99.90
2407;DHT22;37709;53.480;9.688;2023-02-23T12:31:21;9.10;99.90
2407;DHT22;37709;53.480;9.688;2023-02-23T12:33:56;9.00;99.90
2407;DHT22;37709;53.480;9.688;2023-02-23T12:36:58;9.00;99.90
2407;DHT22;37709;53.480;9.688;2023-02-23T12:39:39;9.10;99.90
2407;DHT22;37709;53.480;9.688;2023-02-23T12:42:34;9.10;99.90
2407;DHT22;37709;53.480;9.688;2023-02-23T12:45:06;9.20;99.90
2407;DHT22;37709;53.480;9.688;2023-02-23T12:48:09;9.30;99.90
2407;DHT22;37709;53.480;9.688;2023-02-23T12:50:52;9.40;99.90
2407;DHT22;37709;53.480;9.688;2023-02-23T12:53:27;9.50;99.90
2407;DHT22;37709;53.480;9.688;2023-02-23T13:02:14;9.50;99.90
2407;DHT22;37709;53.480;9.688;2023-02-23T13:04:55;9.50;99.90
2407;DHT22;37709;53.480;9.688;2023-02-23T13:18:51;9.20;99.90
2407;DHT22;37709;53.480;9.688;2023-02-23T13:21:30;9.20;99.90
2407;DHT22;37709;53.480;9.688;2023-02-23T13:24:20;9.30;99.90
2407;DHT22;37709;53.480;9.688;2023-02-23T13:27:11;9.30;99.90
2407;DHT22;37709;53.480;9.688;2023-02-23T13:29:44;9.30;99.90
2407;DHT22;37709;53.480;9.688;2023-02-23T13:32:18;9.30;99.90
2407;DHT22;37709;53.480;9.688;2023-02-23T13:34:53;9.20;99.90
2407;DHT22;37709;53.480;9.688;2023-02-23T13:40:00;9.00;99.90
2407;DHT22;37709;53.480;9.688;2023-02-23T13:51:23;8.90;99.90
2407;DHT22;37709;53.480;9.688;2023-02-23T13:54:05;8.90;99.90
2407;DHT22;37709;53.480;9.688;2023-02-23T13:56:43;8.90;99.90
2407;DHT22;37709;53.480;9.688;2023-02-23T13:59:18;8.80;99.90
2407;DHT22;37709;53.480;9.688;2023-02-23T14:01:50;8.70;99.90
2407;DHT22;37709;53.480;9.688;2023-02-23T14:04:27;8.70;99.90
2407;DHT22;37709;53.480;9.688;2023-02-23T14:07:00;8.80;99.90
2407;DHT22;37709;53.480;9.688;2023-02-23T14:09:36;8.90;99.90
2407;DHT22;37709;53.480;9.688;2023-02-23T14:22:27;8.80;99.90
2407;DHT22;37709;53.480;9.688;2023-02-23T14:28:13;8.90;99.90
2407;DHT22;37709;53.480;9.688;2023-02-23T14:30:58;9.00;99.90
2407;DHT22;37709;53.480;9.688;2023-02-23T14:33:49;9.00;99.90
2407;DHT22;37709;53.480;9.688;2023-02-23T14:47:06;8.70;99.90
2407;DHT22;37709;53.480;9.688;2023-02-23T14:49:36;8.60;99.90
2407;DHT22;37709;53.480;9.688;2023-02-23T14:55:18;8.60;99.90
2407;DHT22;37709;53.480;9.688;2023-02-23T14:57:48;8.50;99.90
2407;DHT22;37709;53.480;9.688;2023-02-23T15:00:40;8.50;99.90
2407;DHT22;37709;53.480;9.688;2023-02-23T15:03:09;8.50;99.90
2407;DHT22;37709;53.480;9.688;2023-02-23T15:05:42;8.50;99.90
2407;DHT22;37709;53.480;9.688;2023-02-23T15:08:13;8.50;99.90
2407;DHT22;37709;53.480;9.688;2023-02-23T15:10:47;8.50;99.90
2407;DHT22;37709;53.480;9.688;2023-02-23T15:13:35;8.60;99.90
2407;DHT22;37709;53.480;9.688;2023-02-23T15:16:30;8.60;99.90
2407;DHT22;37709;53.480;9.688;2023-02-23T15:19:33;8.60;99.90
2407;DHT22;37709;53.480;9.688;2023-02-23T15:22:03;8.60;99.90
2407;DHT22;37709;53.480;9.688;2023-02-23T15:24:43;8.60;99.90
2407;DHT22;37709;53.480;9.688;2023-02-23T15:27:22;8.50;99.90
2407;DHT22;37709;53.480;9.688;2023-02-23T15:29:50;8.40;99.90
2407;DHT22;37709;53.480;9.688;2023-02-23T15:32:21;8.30;99.90
2407;DHT22;37709;53.480;9.688;2023-02-23T15:34:51;8.20;99.90
2407;DHT22;37709;53.480;9.688;2023-02-23T15:37:43;8.10;99.90
2407;DHT22;37709;53.480;9.688;2023-02-23T15:40:20;8.00;99.90
2407;DHT22;37709;53.480;9.688;2023-02-23T15:42:51;7.90;99.90
2407;DHT22;37709;53.480;9.688;2023-02-23T15:45:35;7.90;99.90
2407;DHT22;37709;53.480;9.688;2023-02-23T15:48:06;7.80;99.90
2407;DHT22;37709;53.480;9.688;2023-02-23T15:50:40;7.80;99.90
2407;DHT22;37709;53.480;9.688;2023-02-23T15:55:54;7.60;99.90
2407;DHT22;37709;53.480;9.688;2023-02-23T15:58:30;7.60;99.90
2407;DHT22;37709;53.480;9.688;2023-02-23T16:01:08;7.50;99.90
2407;DHT22;37709;53.480;9.688;2023-02-23T16:03:37;7.40;99.90
2407;DHT22;37709;53.480;9.688;2023-02-23T16:11:33;7.20;99.90
2407;DHT22;37709;53.480;9.688;2023-02-23T16:14:03;7.00;99.90
2407;DHT22;37709;53.480;9.688;2023-02-23T16:16:33;6.90;99.90
2407;DHT22;37709;53.480;9.688;2023-02-23T16:19:01;6.90;99.90
2407;DHT22;37709;53.480;9.688;2023-02-23T16:21:31;6.80;99.90
2407;DHT22;37709;53.480;9.688;2023-02-23T16:24:05;6.70;99.90
2407;DHT22;37709;53.480;9.688;2023-02-23T16:26:40;6.60;99.90
2407;DHT22;37709;53.480;9.688;2023-02-23T16:29:14;6.50;99.90
2407;DHT22;37709;53.480;9.688;2023-02-23T16:31:53;6.40;99.90
2407;DHT22;37709;53.480;9.688;2023-02-23T16:34:32;6.40;99.90
2407;DHT22;37709;53.480;9.688;2023-02-23T16:37:14;6.30;99.90
2407;DHT22;37709;53.480;9.688;2023-02-23T16:39:44;6.30;99.90
2407;DHT22;37709;53.480;9.688;2023-02-23T16:44:54;6.20;99.90
2407;DHT22;37709;53.480;9.688;2023-02-23T16:49:50;6.10;99.90
2407;DHT22;37709;53.480;9.688;2023-02-23T16:52:22;6.10;99.90
2407;DHT22;37709;53.480;9.688;2023-02-23T16:54:50;6.00;99.90
2407;DHT22;37709;53.480;9.688;2023-02-23T16:57:27;6.00;99.90
2407;DHT22;37709;53.480;9.688;2023-02-23T16:59:55;6.00;99.90
2407;DHT22;37709;53.480;9.688;2023-02-23T17:02:23;5.90;99.90
2407;DHT22;37709;53.480;9.688;2023-02-23T17:04:51;5.90;99.90
2407;DHT22;37709;53.480;9.688;2023-02-23T17:07:19;5.90;99.90
2407;DHT22;37709;53.480;9.688;2023-02-23T17:09:49;5.80;99.90
2407;DHT22;37709;53.480;9.688;2023-02-23T17:12:17;5.80;99.90
2407;DHT22;37709;53.480;9.688;2023-02-23T17:14:48;5.70;99.90
2407;DHT22;37709;53.480;9.688;2023-02-23T17:17:17;5.70;99.90
2407;DHT22;37709;53.480;9.688;2023-02-23T17:19:45;5.60;99.90
2407;DHT22;37709;53.480;9.688;2023-02-23T17:22:13;5.60;99.90
2407;DHT22;37709;53.480;9.688;2023-02-23T17:24:41;5.60;99.90
2407;DHT22;37709;53.480;9.688;2023-02-23T17:27:09;5.60;99.90
2407;DHT22;37709;53.480;9.688;2023-02-23T17:29:36;5.50;99.90
2407;DHT22;37709;53.480;9.688;2023-02-23T17:32:03;5.50;99.90
2407;DHT22;37709;53.480;9.688;2023-02-23T17:34:31;5.50;99.90
2407;DHT22;37709;53.480;9.688;2023-02-23T17:36:58;5.50;99.90
2407;DHT22;37709;53.480;9.688;2023-02-23T17:39:26;5.40;99.90
2407;DHT22;37709;53.480;9.688;2023-02-23T17:41:54;5.40;99.90
2407;DHT22;37709;53.480;9.688;2023-02-23T17:44:21;5.40;99.90
2407;DHT22;37709;53.480;9.688;2023-02-23T17:46:49;5.40;99.90
2407;DHT22;37709;53.480;9.688;2023-02-23T17:49:16;5.40;99.90
2407;DHT22;37709;53.480;9.688;2023-02-23T17:51:43;5.40;99.90
2407;DHT22;37709;53.480;9.688;2023-02-23T17:54:11;5.30;99.90
2407;DHT22;37709;53.480;9.688;2023-02-23T17:56:38;5.30;99.90
2407;DHT22;37709;53.480;9.688;2023-02-23T17:59:05;5.30;99.90
2407;DHT22;37709;53.480;9.688;2023-02-23T18:01:33;5.30;99.90
2407;DHT22;37709;53.480;9.688;2023-02-23T18:04:00;5.20;99.90
2407;DHT22;37709;53.480;9.688;2023-02-23T18:06:28;5.20;99.90
2407;DHT22;37709;53.480;9.688;2023-02-23T18:08:56;5.20;99.90
2407;DHT22;37709;53.480;9.688;2023-02-23T18:11:23;5.10;99.90
2407;DHT22;37709;53.480;9.688;2023-02-23T18:13:51;5.00;99.90
2407;DHT22;37709;53.480;9.688;2023-02-23T18:16:19;5.00;99.90
2407;DHT22;37709;53.480;9.688;2023-02-23T18:18:47;4.90;99.90
2407;DHT22;37709;53.480;9.688;2023-02-23T18:21:18;4.90;99.90
2407;DHT22;37709;53.480;9.688;2023-02-23T18:23:46;4.80;99.90
2407;DHT22;37709;53.480;9.688;2023-02-23T18:26:16;4.70;99.90
2407;DHT22;37709;53.480;9.688;2023-02-23T18:28:44;4.70;99.90
2407;DHT22;37709;53.480;9.688;2023-02-23T18:31:14;4.60;99.90
2407;DHT22;37709;53.480;9.688;2023-02-23T18:33:41;4.50;99.90
2407;DHT22;37709;53.480;9.688;2023-02-23T18:36:16;4.50;99.90
2407;DHT22;37709;53.480;9.688;2023-02-23T18:38:44;4.40;99.90